Time;durP1;ratioP1;P1;durP2;ratioP2;P2;SDS_P1;SDS_P2;PMS_P1;PMS_P2;Temp;Humidity;BMP_temperature;BMP_pressure;BME280_temperature;BME280_humidity;BME280_pressure;Samples;Min_cycle;Max_cycle;Signal;HPM_P1;HPM_P2
2022/05/20 00:01:52;;;;;;;;;3.67;3.67;;;;;;;;5119342;27;46226;-72
2022/05/20 00:04:17;;;;;;;;;2.33;2.33;;;;;;;;5120528;27;45567;-72
2022/05/20 00:06:42;;;;;;;;;3.33;3.00;;;;;;;;5120485;27;45250;-72
2022/05/20 00:09:08;;;;;;;;;2.33;2.33;;;;;;;;5120503;27;45308;-73
2022/05/20 00:11:33;;;;;;;;;2.33;2.00;;;;;;;;5120594;27;45264;-73
2022/05/20 00:13:59;;;;;;;;;2.00;2.00;;;;;;;;5120449;27;46136;-72
2022/05/20 00:16:24;;;;;;;;;4.00;4.00;;;;;;;;5104535;27;45252;-73
2022/05/20 00:18:50;;;;;;;;;2.33;2.33;;;;;;;;5100074;27;45569;-73
2022/05/20 00:21:15;;;;;;;;;4.00;3.00;;;;;;;;5099819;27;45423;-72
2022/05/20 00:23:40;;;;;;;;;4.33;4.33;;;;;;;;5099315;27;46351;-73
2022/05/20 00:26:05;;;;;;;;;4.00;2.33;;;;;;;;5098365;27;45339;-73
2022/05/20 00:28:31;;;;;;;;;3.67;3.67;;;;;;;;5100014;27;45412;-72
2022/05/20 00:31:02;;;;;;;;;3.67;3.67;;;;;;;;5099698;27;45394;-72
2022/05/20 00:33:27;;;;;;;;;3.00;3.00;;;;;;;;5099391;27;45995;-72
2022/05/20 00:35:53;;;;;;;;;4.00;4.00;;;;;;;;5099741;27;45302;-73
2022/05/20 00:38:18;;;;;;;;;3.67;3.67;;;;;;;;5099258;27;45211;-72
2022/05/20 00:40:45;;;;;;;;;4.00;4.00;;;;;;;;5099679;27;45168;-73
2022/05/20 00:43:12;;;;;;;;;3.33;3.33;;;;;;;;5098069;27;49545;-73
2022/05/20 00:45:37;;;;;;;;;4.00;4.00;;;;;;;;5099594;27;45403;-72
2022/05/20 00:48:03;;;;;;;;;3.67;3.00;;;;;;;;5102932;27;45360;-72
2022/05/20 00:50:28;;;;;;;;;4.67;4.67;;;;;;;;5102897;27;45332;-73
2022/05/20 00:52:53;;;;;;;;;3.00;3.00;;;;;;;;5102570;27;45622;-72
2022/05/20 00:55:21;;;;;;;;;4.00;4.00;;;;;;;;5103064;27;45388;-72
2022/05/20 00:57:52;;;;;;;;;5.00;4.00;;;;;;;;5103241;27;45325;-73
2022/05/20 01:00:25;;;;;;;;;4.67;4.67;;;;;;;;5101477;27;45559;-73
2022/05/20 01:02:53;;;;;;;;;4.00;4.00;;;;;;;;5102713;27;45457;-73
2022/05/20 01:05:24;;;;;;;;;5.00;4.00;;;;;;;;5102757;27;45378;-72
2022/05/20 01:07:49;;;;;;;;;2.33;2.33;;;;;;;;5102407;27;45353;-72
2022/05/20 01:10:15;;;;;;;;;6.33;3.67;;;;;;;;5102638;27;45567;-72
2022/05/20 01:12:40;;;;;;;;;3.33;3.33;;;;;;;;5102697;27;45340;-72
2022/05/20 01:15:06;;;;;;;;;6.00;3.67;;;;;;;;5107117;27;45412;-73
2022/05/20 01:17:32;;;;;;;;;3.33;3.00;;;;;;;;5123608;27;45435;-73
2022/05/20 01:19:57;;;;;;;;;3.00;3.00;;;;;;;;5123267;27;45373;-73
2022/05/20 01:22:30;;;;;;;;;2.00;2.00;;;;;;;;5123052;27;45394;-72
2022/05/20 01:24:55;;;;;;;;;4.00;3.00;;;;;;;;5121586;27;45571;-72
2022/05/20 01:27:21;;;;;;;;;2.00;2.00;;;;;;;;5121774;27;45385;-72
2022/05/20 01:29:46;;;;;;;;;3.00;3.00;;;;;;;;5123048;27;45349;-73
2022/05/20 01:32:11;;;;;;;;;2.67;2.67;;;;;;;;5122716;27;46172;-72
2022/05/20 01:34:36;;;;;;;;;2.67;2.67;;;;;;;;5122805;27;45287;-72
2022/05/20 01:37:01;;;;;;;;;4.33;4.00;;;;;;;;5121588;27;45304;-73
2022/05/20 01:39:27;;;;;;;;;3.00;3.00;;;;;;;;5122647;27;45388;-72
2022/05/20 01:41:55;;;;;;;;;3.00;3.00;;;;;;;;5122801;27;45571;-72
2022/05/20 01:44:34;;;;;;;;;3.00;3.00;;;;;;;;5122731;27;45278;-72
2022/05/20 01:47:06;;;;;;;;;3.67;3.67;;;;;;;;5122763;27;45337;-72
2022/05/20 01:49:44;;;;;;;;;2.33;2.33;;;;;;;;5121298;27;47071;-74
2022/05/20 01:52:09;;;;;;;;;1.33;1.33;;;;;;;;5122328;27;46235;-73
2022/05/20 01:54:37;;;;;;;;;4.00;4.00;;;;;;;;5122506;27;45164;-73
2022/05/20 01:57:07;;;;;;;;;3.00;3.00;;;;;;;;5121328;27;45405;-72
2022/05/20 01:59:36;;;;;;;;;6.00;6.00;;;;;;;;5121690;27;45283;-72
2022/05/20 02:02:04;;;;;;;;;4.00;3.00;;;;;;;;5122439;27;46107;-75
2022/05/20 02:04:47;;;;;;;;;3.00;3.00;;;;;;;;5122385;27;45387;-72
2022/05/20 02:07:19;;;;;;;;;2.33;2.00;;;;;;;;5120857;27;45299;-72
2022/05/20 02:09:49;;;;;;;;;3.00;3.00;;;;;;;;5122077;27;45328;-72
2022/05/20 02:12:17;;;;;;;;;2.00;2.00;;;;;;;;5122295;27;45388;-72
2022/05/20 02:14:47;;;;;;;;;2.33;2.33;;;;;;;;5120936;27;45239;-72
2022/05/20 02:17:15;;;;;;;;;4.67;4.00;;;;;;;;5101840;27;45340;-72
2022/05/20 02:19:44;;;;;;;;;4.33;4.33;;;;;;;;5101556;27;45283;-73
2022/05/20 02:22:15;;;;;;;;;4.00;4.00;;;;;;;;5101256;27;45497;-73
2022/05/20 02:24:41;;;;;;;;;3.67;3.67;;;;;;;;5101345;27;45321;-72
2022/05/20 02:27:08;;;;;;;;;5.00;5.00;;;;;;;;5101580;27;45383;-72
2022/05/20 02:29:40;;;;;;;;;2.33;2.33;;;;;;;;5101274;27;45286;-73
2022/05/20 02:32:08;;;;;;;;;3.67;3.67;;;;;;;;5101196;27;45273;-72
2022/05/20 02:34:34;;;;;;;;;3.00;3.00;;;;;;;;5101178;27;45332;-72
2022/05/20 02:37:00;;;;;;;;;4.00;4.00;;;;;;;;5101387;27;45303;-73
2022/05/20 02:39:25;;;;;;;;;3.00;3.00;;;;;;;;5100943;27;45367;-72
2022/05/20 02:41:50;;;;;;;;;6.00;4.00;;;;;;;;5101180;27;45435;-72
2022/05/20 02:44:16;;;;;;;;;3.00;3.00;;;;;;;;5101200;27;45368;-72
2022/05/20 02:46:43;;;;;;;;;3.33;3.00;;;;;;;;5099998;27;45374;-73
2022/05/20 02:49:08;;;;;;;;;4.67;3.67;;;;;;;;5099888;27;47343;-72
2022/05/20 02:51:34;;;;;;;;;5.33;4.67;;;;;;;;5100951;27;45345;-72
2022/05/20 02:53:59;;;;;;;;;3.33;3.33;;;;;;;;5100881;27;45316;-72
2022/05/20 02:56:25;;;;;;;;;5.00;4.00;;;;;;;;5101108;27;45336;-73
2022/05/20 03:04:18;;;;;;;;;3.67;3.33;;;;;;;;5100701;27;45353;-73
2022/05/20 03:06:45;;;;;;;;;4.00;4.00;;;;;;;;5100906;27;45299;-73
2022/05/20 03:09:11;;;;;;;;;4.67;3.67;;;;;;;;5100574;27;45474;-72
2022/05/20 03:11:39;;;;;;;;;4.00;3.00;;;;;;;;5100695;27;46228;-72
2022/05/20 03:14:05;;;;;;;;;3.67;3.33;;;;;;;;5099351;27;45381;-73
2022/05/20 03:16:31;;;;;;;;;2.33;2.33;;;;;;;;5117283;27;45438;-72
2022/05/20 03:18:56;;;;;;;;;7.33;6.00;;;;;;;;5121335;27;45439;-72
2022/05/20 03:21:22;;;;;;;;;8.00;6.00;;;;;;;;5119926;27;47959;-73
2022/05/20 03:23:47;;;;;;;;;4.00;4.00;;;;;;;;5119519;27;45363;-73
2022/05/20 03:26:12;;;;;;;;;4.00;4.00;;;;;;;;5119982;27;45389;-72
2022/05/20 03:28:38;;;;;;;;;3.33;3.33;;;;;;;;5121132;27;45364;-72
2022/05/20 03:31:05;;;;;;;;;4.67;3.33;;;;;;;;5121040;27;45625;-72
2022/05/20 03:33:30;;;;;;;;;5.00;4.00;;;;;;;;5120961;27;45328;-73
2022/05/20 03:35:55;;;;;;;;;4.33;3.00;;;;;;;;5121183;27;45562;-73
2022/05/20 03:38:20;;;;;;;;;2.67;2.67;;;;;;;;5120655;27;45370;-73
2022/05/20 03:40:45;;;;;;;;;4.67;4.67;;;;;;;;5120958;27;46105;-73
2022/05/20 03:43:11;;;;;;;;;5.67;4.00;;;;;;;;5120946;27;45705;-72
2022/05/20 03:45:36;;;;;;;;;5.67;4.67;;;;;;;;5121028;27;45392;-72
2022/05/20 03:48:01;;;;;;;;;3.00;3.00;;;;;;;;5121047;27;45283;-72
2022/05/20 03:50:26;;;;;;;;;3.67;3.67;;;;;;;;5120778;27;45357;-73
2022/05/20 03:52:53;;;;;;;;;5.00;4.33;;;;;;;;5118936;27;45527;-73
2022/05/20 03:55:19;;;;;;;;;4.00;4.00;;;;;;;;5120971;27;45411;-72
2022/05/20 03:57:44;;;;;;;;;4.67;4.67;;;;;;;;5120661;27;45312;-72
2022/05/20 04:00:09;;;;;;;;;2.67;2.67;;;;;;;;5120683;27;45712;-73
2022/05/20 04:02:35;;;;;;;;;4.00;4.00;;;;;;;;5120833;27;45398;-73
2022/05/20 04:05:00;;;;;;;;;3.33;3.33;;;;;;;;5120881;27;45453;-72
2022/05/20 04:07:26;;;;;;;;;6.00;4.00;;;;;;;;5120525;27;45410;-72
2022/05/20 04:09:53;;;;;;;;;4.33;4.33;;;;;;;;5120397;27;46435;-73
2022/05/20 04:12:18;;;;;;;;;3.00;3.00;;;;;;;;5119168;27;45367;-72
2022/05/20 04:14:43;;;;;;;;;4.67;3.33;;;;;;;;5119239;27;45453;-72
2022/05/20 04:17:08;;;;;;;;;3.00;3.00;;;;;;;;5099823;27;45286;-72
2022/05/20 04:19:34;;;;;;;;;6.00;5.00;;;;;;;;5099997;27;46194;-72
2022/05/20 04:22:08;;;;;;;;;2.33;2.33;;;;;;;;5101350;27;45330;-72
2022/05/20 04:24:34;;;;;;;;;2.00;2.00;;;;;;;;5103529;27;45371;-72
2022/05/20 04:26:59;;;;;;;;;5.33;4.00;;;;;;;;5101895;27;46488;-72
2022/05/20 04:29:25;;;;;;;;;4.33;3.00;;;;;;;;5103380;27;45301;-73
2022/05/20 04:31:51;;;;;;;;;6.33;6.00;;;;;;;;5103393;27;45340;-72
2022/05/20 04:34:17;;;;;;;;;5.00;3.67;;;;;;;;5103176;27;45455;-72
2022/05/20 04:36:43;;;;;;;;;5.00;4.00;;;;;;;;5103275;27;45440;-73
2022/05/20 04:39:08;;;;;;;;;4.00;4.00;;;;;;;;5102915;27;45374;-72
2022/05/20 04:47:03;;;;;;;;;6.67;5.00;;;;;;;;5102917;27;45221;-73
2022/05/20 04:49:29;;;;;;;;;7.33;6.00;;;;;;;;5102844;27;45200;-73
2022/05/20 04:51:54;;;;;;;;;3.33;3.33;;;;;;;;5103002;27;45259;-74
2022/05/20 04:57:04;;;;;;;;;4.67;3.67;;;;;;;;5102961;27;45461;-73
2022/05/20 04:59:33;;;;;;;;;6.67;6.67;;;;;;;;5102770;27;45264;-73
2022/05/20 05:01:58;;;;;;;;;7.33;6.00;;;;;;;;5102954;27;45360;-73
2022/05/20 05:04:23;;;;;;;;;27.33;22.67;;;;;;;;5102876;27;45404;-73
2022/05/20 05:06:48;;;;;;;;;8.33;8.33;;;;;;;;5102733;27;45267;-74
2022/05/20 05:09:13;;;;;;;;;12.00;10.33;;;;;;;;5102613;27;46155;-73
2022/05/20 05:11:40;;;;;;;;;6.33;6.00;;;;;;;;5102782;27;45357;-72
2022/05/20 05:14:10;;;;;;;;;5.00;5.00;;;;;;;;5100523;27;45287;-74
2022/05/20 05:16:36;;;;;;;;;9.67;8.33;;;;;;;;5105483;27;45417;-74
2022/05/20 05:19:02;;;;;;;;;7.67;7.67;;;;;;;;5102526;27;46302;-72
2022/05/20 05:21:27;;;;;;;;;6.33;6.00;;;;;;;;5089823;27;45432;-73
2022/05/20 05:23:54;;;;;;;;;7.33;7.33;;;;;;;;5082080;27;45336;-73
2022/05/20 05:26:19;;;;;;;;;4.00;4.00;;;;;;;;5081922;28;45399;-75
2022/05/20 05:28:44;;;;;;;;;3.00;3.00;;;;;;;;5080431;28;47079;-75
2022/05/20 05:31:09;;;;;;;;;7.33;5.00;;;;;;;;5080413;28;45987;-75
2022/05/20 05:33:35;;;;;;;;;5.00;5.00;;;;;;;;5080738;27;45349;-75
2022/05/20 05:36:00;;;;;;;;;6.00;6.00;;;;;;;;5081787;27;45535;-74
2022/05/20 05:38:25;;;;;;;;;6.33;6.33;;;;;;;;5081329;27;45340;-75
2022/05/20 05:40:50;;;;;;;;;6.33;5.33;;;;;;;;5081888;28;45254;-75
2022/05/20 05:43:16;;;;;;;;;3.33;3.00;;;;;;;;5081920;27;45305;-75
2022/05/20 05:45:41;;;;;;;;;5.67;5.00;;;;;;;;5082168;27;45566;-73
2022/05/20 05:48:07;;;;;;;;;5.00;4.00;;;;;;;;5080959;27;46239;-74
2022/05/20 05:50:33;;;;;;;;;5.00;5.00;;;;;;;;5080032;27;45280;-73
2022/05/20 05:53:08;;;;;;;;;10.33;9.33;;;;;;;;5081543;27;45280;-73
2022/05/20 05:55:33;;;;;;;;;6.00;6.00;;;;;;;;5081611;28;45406;-72
2022/05/20 05:57:58;;;;;;;;;9.00;7.00;;;;;;;;5081335;27;46033;-72
2022/05/20 06:00:24;;;;;;;;;8.33;7.00;;;;;;;;5081446;27;45287;-74
2022/05/20 06:02:49;;;;;;;;;8.00;8.00;;;;;;;;5081600;27;45359;-73
2022/05/20 06:05:14;;;;;;;;;8.67;8.00;;;;;;;;5079924;28;46133;-73
2022/05/20 06:07:40;;;;;;;;;30.33;28.67;;;;;;;;5079605;28;47285;-72
2022/05/20 06:10:05;;;;;;;;;24.33;24.00;;;;;;;;5079857;28;45290;-73
2022/05/20 06:12:31;;;;;;;;;25.50;20.00;;;;;;;;5081294;27;45311;-72
2022/05/20 06:14:57;;;;;;;;;11.33;11.00;;;;;;;;5087897;27;45256;-72
2022/05/20 06:17:22;;;;;;;;;7.67;6.00;;;;;;;;5122155;27;45338;-72
2022/05/20 06:19:47;;;;;;;;;5.33;5.00;;;;;;;;5122199;27;45231;-72
2022/05/20 06:22:12;;;;;;;;;7.00;7.00;;;;;;;;5122344;27;45230;-72
2022/05/20 06:24:37;;;;;;;;;6.67;6.67;;;;;;;;5121911;27;45215;-73
2022/05/20 06:27:03;;;;;;;;;6.33;5.00;;;;;;;;5122139;27;45432;-72
2022/05/20 06:29:29;;;;;;;;;5.00;5.00;;;;;;;;5122035;27;45243;-72
2022/05/20 06:31:54;;;;;;;;;9.00;6.33;;;;;;;;5122124;27;45381;-72
2022/05/20 06:34:19;;;;;;;;;10.33;8.00;;;;;;;;5121765;27;45668;-72
2022/05/20 06:41:54;;;;;;;;;7.33;7.33;;;;;;;;5122040;27;45308;-72
2022/05/20 06:44:19;;;;;;;;;8.33;7.67;;;;;;;;5120036;27;46824;-72
2022/05/20 06:46:44;;;;;;;;;6.33;6.33;;;;;;;;5120442;27;48199;-73
2022/05/20 06:49:09;;;;;;;;;8.33;6.00;;;;;;;;5121884;27;45231;-73
2022/05/20 06:51:39;;;;;;;;;56.50;44.75;;;;;;;;5121814;27;45637;-72
2022/05/20 06:54:05;;;;;;;;;108.75;94.50;;;;;;;;5091838;27;46421;-75
2022/05/20 06:56:31;;;;;;;;;29.00;25.67;;;;;;;;5078788;27;47557;-73
2022/05/20 06:58:57;;;;;;;;;11.00;9.67;;;;;;;;5079135;28;45346;-72
2022/05/20 07:01:22;;;;;;;;;6.67;6.67;;;;;;;;5080610;27;45243;-73
2022/05/20 07:03:48;;;;;;;;;11.00;10.00;;;;;;;;5080216;27;45438;-72
2022/05/20 07:06:14;;;;;;;;;12.00;10.00;;;;;;;;5080027;27;45593;-72
2022/05/20 07:08:39;;;;;;;;;10.00;9.00;;;;;;;;5080204;28;45300;-72
2022/05/20 07:11:05;;;;;;;;;15.67;13.33;;;;;;;;5080505;27;45253;-72
2022/05/20 07:13:31;;;;;;;;;9.33;9.33;;;;;;;;5078630;28;46997;-72
2022/05/20 07:15:57;;;;;;;;;9.33;9.33;;;;;;;;5103542;27;46047;-71
2022/05/20 07:18:23;;;;;;;;;8.33;8.33;;;;;;;;5121199;27;45250;-71
2022/05/20 07:20:48;;;;;;;;;9.33;9.00;;;;;;;;5121202;27;45291;-72
2022/05/20 07:23:13;;;;;;;;;11.00;9.00;;;;;;;;5120816;27;45298;-72
2022/05/20 07:25:38;;;;;;;;;8.33;8.33;;;;;;;;5121108;27;46190;-72
2022/05/20 07:28:05;;;;;;;;;10.33;10.33;;;;;;;;5121190;27;45350;-72
2022/05/20 07:30:30;;;;;;;;;10.00;10.00;;;;;;;;5121260;27;45642;-71
2022/05/20 07:32:56;;;;;;;;;9.00;9.00;;;;;;;;5119270;27;45942;-72
2022/05/20 07:35:21;;;;;;;;;11.67;11.67;;;;;;;;5121105;27;46170;-71
2022/05/20 07:37:47;;;;;;;;;11.33;9.67;;;;;;;;5120991;27;45321;-71
2022/05/20 07:40:12;;;;;;;;;11.67;10.00;;;;;;;;5080994;27;45372;-71
2022/05/20 07:42:38;;;;;;;;;11.00;10.33;;;;;;;;5094041;27;45300;-70
2022/05/20 07:45:03;;;;;;;;;12.33;12.33;;;;;;;;5086665;27;46124;-73
2022/05/20 07:47:28;;;;;;;;;13.67;13.00;;;;;;;;5079764;28;45224;-73
2022/05/20 07:49:53;;;;;;;;;13.67;12.67;;;;;;;;5079867;28;45290;-73
2022/05/20 07:53:19;;;;;;;;;11.00;11.00;;;;;;;;5079483;28;45273;-72
2022/05/20 07:55:06;;;;;;;;;11.00;11.00;;;;;;;;5079551;28;45865;-71
2022/05/20 07:57:31;;;;;;;;;12.00;12.00;;;;;;;;5078645;28;45244;-72
2022/05/20 07:59:57;;;;;;;;;11.00;10.33;;;;;;;;5079725;28;45211;-72
2022/05/20 08:02:24;;;;;;;;;19.00;18.00;;;;;;;;5078636;28;45310;-72
2022/05/20 08:04:58;;;;;;;;;17.00;17.00;;;;;;;;5078905;28;45490;-71
2022/05/20 08:07:26;;;;;;;;;13.33;13.33;;;;;;;;5077448;28;45339;-72
2022/05/20 08:09:52;;;;;;;;;16.67;16.67;;;;;;;;5079467;28;45491;-71
2022/05/20 08:12:17;;;;;;;;;15.67;15.00;;;;;;;;5079243;28;45322;-72
2022/05/20 08:14:42;;;;;;;;;15.33;15.33;;;;;;;;5081947;27;46109;-71
2022/05/20 08:17:07;;;;;;;;;16.33;15.33;;;;;;;;5120556;27;45348;-71
2022/05/20 08:19:33;;;;;;;;;15.00;15.00;;;;;;;;5120683;27;45295;-72
2022/05/20 08:21:59;;;;;;;;;13.00;13.00;;;;;;;;5120270;27;45328;-71
2022/05/20 08:24:25;;;;;;;;;14.33;12.67;;;;;;;;5120123;27;46083;-71
2022/05/20 08:26:50;;;;;;;;;16.00;16.00;;;;;;;;5120322;27;45347;-72
2022/05/20 08:29:16;;;;;;;;;12.00;10.67;;;;;;;;5120118;27;45445;-72
2022/05/20 08:31:43;;;;;;;;;16.33;15.67;;;;;;;;5120080;27;45490;-71
2022/05/20 08:34:09;;;;;;;;;15.00;14.33;;;;;;;;5098250;27;45508;-72
2022/05/20 08:36:35;;;;;;;;;16.00;15.67;;;;;;;;5078522;27;45318;-73
2022/05/20 08:39:00;;;;;;;;;17.00;17.00;;;;;;;;5076723;27;45320;-72
2022/05/20 08:41:28;;;;;;;;;12.00;11.67;;;;;;;;5077326;28;45616;-72
2022/05/20 08:43:54;;;;;;;;;13.67;13.67;;;;;;;;5077522;27;46111;-72
2022/05/20 08:46:21;;;;;;;;;14.67;14.67;;;;;;;;5078800;27;45299;-72
2022/05/20 08:48:51;;;;;;;;;13.33;13.00;;;;;;;;5079288;27;45314;-72
2022/05/20 08:51:17;;;;;;;;;14.00;14.00;;;;;;;;5078206;27;45568;-72
2022/05/20 08:53:44;;;;;;;;;15.67;14.33;;;;;;;;5078135;27;45884;-72
2022/05/20 08:56:12;;;;;;;;;18.33;17.33;;;;;;;;5076833;27;45416;-73
2022/05/20 08:58:40;;;;;;;;;18.33;17.33;;;;;;;;5076613;27;45381;-72
2022/05/20 09:01:08;;;;;;;;;16.00;16.00;;;;;;;;5075846;27;47072;-72
2022/05/20 09:03:33;;;;;;;;;13.67;13.67;;;;;;;;5078335;27;46193;-72
2022/05/20 09:06:03;;;;;;;;;19.67;16.67;;;;;;;;5078711;27;45361;-72
2022/05/20 09:08:28;;;;;;;;;20.33;18.67;;;;;;;;5081066;27;45226;-72
2022/05/20 09:10:55;;;;;;;;;20.00;18.00;;;;;;;;5096137;27;45474;-72
2022/05/20 09:13:20;;;;;;;;;53.00;42.25;;;;;;;;5102271;27;46592;-71
2022/05/20 09:15:56;;;;;;;;;52.25;42.50;;;;;;;;5112723;27;45443;-72
2022/05/20 09:18:27;;;;;;;;;18.33;18.33;;;;;;;;5121936;27;45406;-72
2022/05/20 09:20:53;;;;;;;;;20.00;20.00;;;;;;;;5123110;27;45553;-73
2022/05/20 09:23:22;;;;;;;;;15.67;14.67;;;;;;;;5122523;27;45294;-72
2022/05/20 09:25:47;;;;;;;;;20.00;18.67;;;;;;;;5122953;27;45318;-71
2022/05/20 09:28:33;;;;;;;;;18.67;18.00;;;;;;;;5123001;27;45287;-71
2022/05/20 09:31:04;;;;;;;;;19.33;19.00;;;;;;;;5118543;27;46816;-71
2022/05/20 09:33:30;;;;;;;;;19.67;17.67;;;;;;;;5122351;27;46190;-71
2022/05/20 09:35:57;;;;;;;;;17.67;17.67;;;;;;;;5121562;27;45680;-71
2022/05/20 09:38:31;;;;;;;;;19.00;17.67;;;;;;;;5122269;27;45332;-72
2022/05/20 09:40:57;;;;;;;;;22.00;20.00;;;;;;;;5122421;27;45501;-71
2022/05/20 09:43:28;;;;;;;;;21.67;20.67;;;;;;;;5122569;27;46072;-72
2022/05/20 09:45:54;;;;;;;;;20.67;20.00;;;;;;;;5122894;27;45303;-72
2022/05/20 09:48:21;;;;;;;;;23.00;22.00;;;;;;;;5122723;27;45147;-71
2022/05/20 09:51:22;;;;;;;;;24.00;23.67;;;;;;;;5122411;27;45274;-71
2022/05/20 09:54:19;;;;;;;;;22.00;20.67;;;;;;;;5081889;27;48282;-71
2022/05/20 09:56:46;;;;;;;;;25.00;23.67;;;;;;;;5087622;27;45321;-71
2022/05/20 09:59:31;;;;;;;;;15.00;15.00;;;;;;;;5122679;27;45371;-71
2022/05/20 10:02:09;;;;;;;;;25.00;22.67;;;;;;;;5110051;27;45470;-71
2022/05/20 10:04:51;;;;;;;;;25.33;22.33;;;;;;;;5114426;27;48522;-71
2022/05/20 10:07:19;;;;;;;;;25.00;25.00;;;;;;;;5084288;27;45340;-72
2022/05/20 10:09:54;;;;;;;;;25.67;23.00;;;;;;;;5081341;27;45397;-72
2022/05/20 10:12:34;;;;;;;;;27.67;25.00;;;;;;;;5081240;27;45323;-71
2022/05/20 10:14:59;;;;;;;;;39.00;33.00;;;;;;;;5087219;27;48183;-72
2022/05/20 10:17:24;;;;;;;;;26.67;26.67;;;;;;;;5122141;27;45309;-72
2022/05/20 10:19:59;;;;;;;;;33.33;29.67;;;;;;;;5121655;27;45297;-71
2022/05/20 10:22:43;;;;;;;;;36.00;32.67;;;;;;;;5121664;27;45452;-71
2022/05/20 10:25:08;;;;;;;;;25.33;22.00;;;;;;;;5121919;27;45277;-73
2022/05/20 10:27:45;;;;;;;;;23.00;23.00;;;;;;;;5121972;27;45211;-73
2022/05/20 10:33:04;;;;;;;;;27.00;25.33;;;;;;;;5121610;27;45340;-72
2022/05/20 10:35:49;;;;;;;;;21.67;20.33;;;;;;;;5121819;27;45237;-73
2022/05/20 10:38:30;;;;;;;;;22.00;21.33;;;;;;;;5120923;27;45322;-72
2022/05/20 10:41:06;;;;;;;;;21.67;21.33;;;;;;;;5120653;27;45416;-71
2022/05/20 10:48:34;;;;;;;;;23.00;21.00;;;;;;;;5120292;27;46084;-72
2022/05/20 10:49:26;;;;;;;;;20.33;20.00;;;;;;;;5121710;27;45334;-71
2022/05/20 10:52:03;;;;;;;;;22.00;22.00;;;;;;;;5121582;27;45279;-72
2022/05/20 10:54:34;;;;;;;;;22.33;20.33;;;;;;;;5121332;27;45295;-72
2022/05/20 10:57:18;;;;;;;;;23.67;23.33;;;;;;;;5121341;27;45293;-72
2022/05/20 10:59:49;;;;;;;;;24.00;23.67;;;;;;;;5120210;27;45300;-72
2022/05/20 11:02:29;;;;;;;;;27.33;25.33;;;;;;;;5121551;27;45502;-74
2022/05/20 11:05:16;;;;;;;;;26.33;25.00;;;;;;;;5121483;27;45356;-73
2022/05/20 11:07:42;;;;;;;;;20.33;20.33;;;;;;;;5118681;27;48561;-71
2022/05/20 11:10:26;;;;;;;;;27.33;26.67;;;;;;;;5121238;27;45384;-72
2022/05/20 11:13:09;;;;;;;;;34.33;29.67;;;;;;;;5121571;27;45469;-72
2022/05/20 11:15:45;;;;;;;;;29.00;26.67;;;;;;;;5112351;27;45357;-71
2022/05/20 11:18:13;;;;;;;;;21.67;21.00;;;;;;;;5100544;27;46419;-71
2022/05/20 11:21:03;;;;;;;;;21.33;20.00;;;;;;;;5087894;27;45433;-71
2022/05/20 11:23:28;;;;;;;;;20.00;19.00;;;;;;;;5078851;27;45311;-72
2022/05/20 11:25:54;;;;;;;;;20.33;17.67;;;;;;;;5082359;27;45313;-72
2022/05/20 11:28:29;;;;;;;;;23.00;21.33;;;;;;;;5080769;27;45428;-71
2022/05/20 11:31:09;;;;;;;;;26.00;24.33;;;;;;;;5079006;27;45475;-73
2022/05/20 11:33:40;;;;;;;;;19.33;19.33;;;;;;;;5079991;27;45357;-72
2022/05/20 11:36:08;;;;;;;;;21.33;21.33;;;;;;;;5079881;27;45694;-72
2022/05/20 11:38:49;;;;;;;;;20.67;20.67;;;;;;;;5079374;27;45563;-72
2022/05/20 11:41:40;;;;;;;;;21.33;21.33;;;;;;;;5079901;27;45303;-72
2022/05/20 11:44:08;;;;;;;;;21.67;21.67;;;;;;;;5080021;27;45308;-72
2022/05/20 11:46:40;;;;;;;;;20.67;20.67;;;;;;;;5079427;27;45374;-72
2022/05/20 11:49:14;;;;;;;;;22.33;21.33;;;;;;;;5078196;28;47338;-72
2022/05/20 11:51:39;;;;;;;;;23.00;22.33;;;;;;;;5079323;27;45449;-72
2022/05/20 11:54:08;;;;;;;;;24.00;23.67;;;;;;;;5077572;28;45506;-72
2022/05/20 11:56:45;;;;;;;;;26.00;25.33;;;;;;;;5077397;27;45497;-73
2022/05/20 11:59:16;;;;;;;;;27.33;26.00;;;;;;;;5078020;27;46252;-71
2022/05/20 12:01:43;;;;;;;;;27.33;26.67;;;;;;;;5077707;28;45405;-72
2022/05/20 12:04:09;;;;;;;;;22.33;21.67;;;;;;;;5079663;27;45635;-73
2022/05/20 12:06:41;;;;;;;;;32.00;29.33;;;;;;;;5079235;27;45346;-72
2022/05/20 12:09:24;;;;;;;;;30.67;28.67;;;;;;;;5085826;27;45519;-73
2022/05/20 12:12:08;;;;;;;;;33.67;30.67;;;;;;;;5084292;27;45287;-73
2022/05/20 12:14:53;;;;;;;;;31.00;30.00;;;;;;;;5079058;27;45299;-73
2022/05/20 12:17:29;;;;;;;;;36.00;31.33;;;;;;;;5088163;27;45425;-72
2022/05/20 12:25:39;;;;;;;;;30.00;28.33;;;;;;;;5097362;27;45424;-73
2022/05/20 12:28:28;;;;;;;;;31.67;30.00;;;;;;;;5079081;27;45332;-73
2022/05/20 12:31:12;;;;;;;;;32.00;30.00;;;;;;;;5085380;27;47079;-71
2022/05/20 12:33:49;;;;;;;;;34.00;30.67;;;;;;;;5079151;27;45370;-71
2022/05/20 12:36:14;;;;;;;;;33.67;31.00;;;;;;;;5079333;27;45302;-71
2022/05/20 12:38:39;;;;;;;;;28.67;28.00;;;;;;;;5084221;27;46429;-71
2022/05/20 12:41:15;;;;;;;;;23.00;22.33;;;;;;;;5098497;27;45474;-72
2022/05/20 12:43:41;;;;;;;;;27.00;27.00;;;;;;;;5101445;27;45275;-71
2022/05/20 12:46:09;;;;;;;;;26.33;26.33;;;;;;;;5088569;27;45353;-72
2022/05/20 12:48:35;;;;;;;;;26.33;24.33;;;;;;;;5083803;27;45410;-71
2022/05/20 12:51:02;;;;;;;;;20.33;20.33;;;;;;;;5102683;27;46039;-72
2022/05/20 12:53:29;;;;;;;;;20.33;19.67;;;;;;;;5102677;27;45424;-72
2022/05/20 12:55:55;;;;;;;;;19.33;19.33;;;;;;;;5103042;27;45259;-72
2022/05/20 12:58:23;;;;;;;;;17.67;15.67;;;;;;;;5102793;27;45223;-72
2022/05/20 13:00:50;;;;;;;;;19.33;18.67;;;;;;;;5102806;27;45426;-71
2022/05/20 13:03:16;;;;;;;;;17.00;16.67;;;;;;;;5102650;27;45455;-71
2022/05/20 13:05:51;;;;;;;;;30.33;27.00;;;;;;;;5101677;27;45339;-71
2022/05/20 13:08:24;;;;;;;;;25.33;23.67;;;;;;;;5102542;27;45384;-71
2022/05/20 13:10:49;;;;;;;;;23.33;23.33;;;;;;;;5102541;27;46417;-70
2022/05/20 13:13:17;;;;;;;;;24.67;24.67;;;;;;;;5102594;27;45319;-71
2022/05/20 13:15:49;;;;;;;;;27.33;27.00;;;;;;;;5111347;27;45319;-71
2022/05/20 13:18:19;;;;;;;;;22.00;22.00;;;;;;;;5123123;27;46485;-71
2022/05/20 13:20:45;;;;;;;;;26.00;24.33;;;;;;;;5098851;27;45972;-72
2022/05/20 13:23:16;;;;;;;;;19.33;19.00;;;;;;;;5095044;27;45386;-71
2022/05/20 13:25:44;;;;;;;;;18.67;18.33;;;;;;;;5100427;27;46194;-71
2022/05/20 13:28:09;;;;;;;;;19.33;19.33;;;;;;;;5084356;27;47291;-71
2022/05/20 13:30:35;;;;;;;;;21.00;20.67;;;;;;;;5081822;28;46177;-71
2022/05/20 13:33:03;;;;;;;;;21.67;19.67;;;;;;;;5081571;28;45329;-71
2022/05/20 13:35:28;;;;;;;;;19.00;19.00;;;;;;;;5082109;28;45263;-71
2022/05/20 13:37:55;;;;;;;;;18.33;17.00;;;;;;;;5081400;28;45512;-71
2022/05/20 13:40:20;;;;;;;;;18.33;18.33;;;;;;;;5081477;28;45485;-71
2022/05/20 13:42:51;;;;;;;;;17.00;15.67;;;;;;;;5080307;28;45306;-71
2022/05/20 13:45:18;;;;;;;;;12.67;12.67;;;;;;;;5081979;28;45379;-72
2022/05/20 13:50:27;;;;;;;;;13.33;13.33;;;;;;;;5081299;28;45313;-72
2022/05/20 13:52:53;;;;;;;;;10.00;10.00;;;;;;;;5081230;28;45318;-71
2022/05/20 13:55:19;;;;;;;;;8.33;8.33;;;;;;;;5080621;28;45265;-71
2022/05/20 13:57:46;;;;;;;;;9.00;9.00;;;;;;;;5081431;28;45198;-71
2022/05/20 14:00:14;;;;;;;;;10.00;10.00;;;;;;;;5081593;28;45456;-71
2022/05/20 14:02:40;;;;;;;;;10.33;10.33;;;;;;;;5081354;28;45353;-72
2022/05/20 14:05:17;;;;;;;;;9.00;9.00;;;;;;;;5080743;28;45423;-71
2022/05/20 14:07:45;;;;;;;;;9.33;9.33;;;;;;;;5080929;28;45272;-70
2022/05/20 14:10:14;;;;;;;;;11.00;11.00;;;;;;;;5081057;28;45599;-71
2022/05/20 14:12:59;;;;;;;;;8.00;8.00;;;;;;;;5080740;28;45377;-71
2022/05/20 14:15:30;;;;;;;;;9.67;9.67;;;;;;;;5094642;27;45357;-71
2022/05/20 14:17:56;;;;;;;;;11.00;9.67;;;;;;;;5122304;27;45306;-72
2022/05/20 14:20:23;;;;;;;;;12.00;12.00;;;;;;;;5119935;27;46874;-72
2022/05/20 14:22:48;;;;;;;;;10.33;10.33;;;;;;;;5121300;27;45353;-72
2022/05/20 14:25:24;;;;;;;;;11.67;10.67;;;;;;;;5121920;27;45642;-72
2022/05/20 14:27:51;;;;;;;;;10.67;10.33;;;;;;;;5121963;27;45297;-72
2022/05/20 14:30:22;;;;;;;;;10.67;8.67;;;;;;;;5121751;27;45632;-72
2022/05/20 14:32:52;;;;;;;;;11.00;9.00;;;;;;;;5120500;27;45479;-71
2022/05/20 14:35:22;;;;;;;;;11.33;9.33;;;;;;;;5121964;27;45289;-71
2022/05/20 14:37:48;;;;;;;;;12.00;9.67;;;;;;;;5121663;27;45338;-72
2022/05/20 14:40:14;;;;;;;;;10.00;10.00;;;;;;;;5121701;27;45364;-71
2022/05/20 14:42:44;;;;;;;;;16.00;15.33;;;;;;;;5121899;27;45271;-71
2022/05/20 14:45:14;;;;;;;;;15.33;14.33;;;;;;;;5122109;27;45223;-71
2022/05/20 14:47:41;;;;;;;;;18.67;18.00;;;;;;;;5121817;27;45377;-71
2022/05/20 14:50:15;;;;;;;;;18.33;18.33;;;;;;;;5121670;27;45457;-71
2022/05/20 14:52:43;;;;;;;;;17.67;17.67;;;;;;;;5121275;27;45372;-71
2022/05/20 14:55:13;;;;;;;;;19.67;18.67;;;;;;;;5121768;27;45214;-71
2022/05/20 14:57:38;;;;;;;;;14.67;14.00;;;;;;;;5121474;27;45464;-71
2022/05/20 15:00:06;;;;;;;;;17.67;17.67;;;;;;;;5121471;27;45547;-71
2022/05/20 15:02:31;;;;;;;;;19.00;19.00;;;;;;;;5121591;27;45272;-71
2022/05/20 15:04:57;;;;;;;;;19.33;19.00;;;;;;;;5120025;27;45379;-71
2022/05/20 15:07:22;;;;;;;;;26.00;26.00;;;;;;;;5121235;27;45248;-71
2022/05/20 15:09:50;;;;;;;;;26.00;24.33;;;;;;;;5121387;27;45294;-72